sensor_id;sensor_type;location;lat;lon;timestamp;P1;durP1;ratioP1;P2;durP2;ratioP2
21089;SDS011;10703;51.020;6.128;2022-08-11T00:01:27;5.67;;;2.13;;
21089;SDS011;10703;51.020;6.128;2022-08-11T00:03:54;7.83;;;2.40;;
21089;SDS011;10703;51.020;6.128;2022-08-11T00:06:31;9.40;;;2.07;;
21089;SDS011;10703;51.020;6.128;2022-08-11T00:09:01;6.33;;;2.20;;
21089;SDS011;10703;51.020;6.128;2022-08-11T00:11:31;3.50;;;2.17;;
21089;SDS011;10703;51.020;6.128;2022-08-11T00:14:00;10.17;;;2.20;;
21089;SDS011;10703;51.020;6.128;2022-08-11T00:16:29;7.47;;;2.40;;
21089;SDS011;10703;51.020;6.128;2022-08-11T00:18:56;7.50;;;2.40;;
21089;SDS011;10703;51.020;6.128;2022-08-11T00:21:25;7.60;;;2.73;;
21089;SDS011;10703;51.020;6.128;2022-08-11T00:24:12;10.17;;;2.23;;
21089;SDS011;10703;51.020;6.128;2022-08-11T00:26:39;7.80;;;2.20;;
21089;SDS011;10703;51.020;6.128;2022-08-11T00:29:12;10.93;;;2.60;;
21089;SDS011;10703;51.020;6.128;2022-08-11T00:31:42;9.13;;;2.30;;
21089;SDS011;10703;51.020;6.128;2022-08-11T00:34:16;9.10;;;2.90;;
21089;SDS011;10703;51.020;6.128;2022-08-11T00:36:56;5.87;;;2.60;;
21089;SDS011;10703;51.020;6.128;2022-08-11T00:39:26;4.23;;;2.33;;
21089;SDS011;10703;51.020;6.128;2022-08-11T00:45:08;11.73;;;2.67;;
21089;SDS011;10703;51.020;6.128;2022-08-11T00:50:34;9.00;;;2.67;;
21089;SDS011;10703;51.020;6.128;2022-08-11T00:53:16;7.37;;;2.40;;
21089;SDS011;10703;51.020;6.128;2022-08-11T01:02:16;10.27;;;2.73;;
21089;SDS011;10703;51.020;6.128;2022-08-11T01:10:41;7.43;;;2.40;;
21089;SDS011;10703;51.020;6.128;2022-08-11T01:13:45;9.03;;;2.57;;
21089;SDS011;10703;51.020;6.128;2022-08-11T01:16:45;14.20;;;3.27;;
21089;SDS011;10703;51.020;6.128;2022-08-11T01:19:55;6.83;;;2.57;;
21089;SDS011;10703;51.020;6.128;2022-08-11T01:23:02;8.47;;;2.40;;
21089;SDS011;10703;51.020;6.128;2022-08-11T01:31:43;12.83;;;2.70;;
21089;SDS011;10703;51.020;6.128;2022-08-11T01:42:53;8.07;;;2.43;;
21089;SDS011;10703;51.020;6.128;2022-08-11T01:57:55;9.90;;;2.80;;
21089;SDS011;10703;51.020;6.128;2022-08-11T02:00:34;11.87;;;2.57;;
21089;SDS011;10703;51.020;6.128;2022-08-11T02:05:50;7.77;;;2.50;;
21089;SDS011;10703;51.020;6.128;2022-08-11T02:09:02;7.80;;;2.40;;
21089;SDS011;10703;51.020;6.128;2022-08-11T02:11:38;13.00;;;2.83;;
21089;SDS011;10703;51.020;6.128;2022-08-11T02:14:14;10.53;;;2.90;;
21089;SDS011;10703;51.020;6.128;2022-08-11T02:26:19;12.67;;;4.07;;
21089;SDS011;10703;51.020;6.128;2022-08-11T02:31:52;8.70;;;3.67;;
21089;SDS011;10703;51.020;6.128;2022-08-11T02:35:17;8.80;;;3.40;;
21089;SDS011;10703;51.020;6.128;2022-08-11T02:38:15;6.90;;;3.47;;
21089;SDS011;10703;51.020;6.128;2022-08-11T02:41:17;11.83;;;3.13;;
21089;SDS011;10703;51.020;6.128;2022-08-11T02:55:22;10.80;;;3.67;;
21089;SDS011;10703;51.020;6.128;2022-08-11T02:58:37;10.00;;;3.80;;
21089;SDS011;10703;51.020;6.128;2022-08-11T03:01:47;9.30;;;3.60;;
21089;SDS011;10703;51.020;6.128;2022-08-11T03:16:12;10.37;;;3.87;;
21089;SDS011;10703;51.020;6.128;2022-08-11T03:22:18;12.13;;;4.10;;
21089;SDS011;10703;51.020;6.128;2022-08-11T03:30:26;9.63;;;4.20;;
21089;SDS011;10703;51.020;6.128;2022-08-11T03:33:23;13.70;;;4.37;;
21089;SDS011;10703;51.020;6.128;2022-08-11T03:38:58;15.77;;;5.03;;
21089;SDS011;10703;51.020;6.128;2022-08-11T03:41:44;17.17;;;4.87;;
21089;SDS011;10703;51.020;6.128;2022-08-11T03:47:12;16.20;;;4.57;;
21089;SDS011;10703;51.020;6.128;2022-08-11T04:03:39;18.07;;;4.77;;
21089;SDS011;10703;51.020;6.128;2022-08-11T04:18:46;11.03;;;4.60;;
21089;SDS011;10703;51.020;6.128;2022-08-11T04:24:32;17.83;;;4.93;;
21089;SDS011;10703;51.020;6.128;2022-08-11T04:30:26;13.80;;;4.30;;
21089;SDS011;10703;51.020;6.128;2022-08-11T04:36:10;13.87;;;4.60;;
21089;SDS011;10703;51.020;6.128;2022-08-11T04:39:13;12.33;;;3.97;;
21089;SDS011;10703;51.020;6.128;2022-08-11T04:42:05;15.67;;;4.37;;
21089;SDS011;10703;51.020;6.128;2022-08-11T04:54:45;11.57;;;4.57;;
21089;SDS011;10703;51.020;6.128;2022-08-11T04:57:49;14.73;;;4.53;;
21089;SDS011;10703;51.020;6.128;2022-08-11T05:00:53;10.67;;;4.17;;
21089;SDS011;10703;51.020;6.128;2022-08-11T05:10:19;15.93;;;4.57;;
21089;SDS011;10703;51.020;6.128;2022-08-11T05:13:08;8.70;;;4.20;;
21089;SDS011;10703;51.020;6.128;2022-08-11T05:16:00;18.07;;;4.60;;
21089;SDS011;10703;51.020;6.128;2022-08-11T05:18:52;11.03;;;3.63;;
21089;SDS011;10703;51.020;6.128;2022-08-11T05:21:50;11.83;;;4.10;;
21089;SDS011;10703;51.020;6.128;2022-08-11T05:24:43;9.80;;;4.30;;
21089;SDS011;10703;51.020;6.128;2022-08-11T05:27:35;11.47;;;4.40;;
21089;SDS011;10703;51.020;6.128;2022-08-11T05:30:45;15.33;;;3.90;;
21089;SDS011;10703;51.020;6.128;2022-08-11T05:33:50;15.63;;;4.00;;
21089;SDS011;10703;51.020;6.128;2022-08-11T05:39:52;12.50;;;4.23;;
21089;SDS011;10703;51.020;6.128;2022-08-11T05:42:47;12.90;;;3.93;;
21089;SDS011;10703;51.020;6.128;2022-08-11T05:45:35;10.47;;;3.90;;
21089;SDS011;10703;51.020;6.128;2022-08-11T05:48:31;7.90;;;3.73;;
21089;SDS011;10703;51.020;6.128;2022-08-11T05:51:18;10.50;;;3.83;;
21089;SDS011;10703;51.020;6.128;2022-08-11T05:54:19;8.87;;;3.27;;
21089;SDS011;10703;51.020;6.128;2022-08-11T05:57:06;14.40;;;3.17;;
21089;SDS011;10703;51.020;6.128;2022-08-11T05:59:58;9.50;;;3.13;;
21089;SDS011;10703;51.020;6.128;2022-08-11T06:02:27;13.27;;;3.30;;
21089;SDS011;10703;51.020;6.128;2022-08-11T06:04:55;7.57;;;3.40;;
21089;SDS011;10703;51.020;6.128;2022-08-11T06:07:27;5.70;;;3.20;;
21089;SDS011;10703;51.020;6.128;2022-08-11T06:10:24;10.17;;;3.13;;
21089;SDS011;10703;51.020;6.128;2022-08-11T06:12:58;10.77;;;3.40;;
21089;SDS011;10703;51.020;6.128;2022-08-11T06:15:27;14.50;;;3.40;;
21089;SDS011;10703;51.020;6.128;2022-08-11T06:18:00;10.77;;;3.63;;
21089;SDS011;10703;51.020;6.128;2022-08-11T06:20:29;9.37;;;3.37;;
21089;SDS011;10703;51.020;6.128;2022-08-11T06:23:02;10.50;;;3.13;;
21089;SDS011;10703;51.020;6.128;2022-08-11T06:25:34;11.17;;;3.50;;
21089;SDS011;10703;51.020;6.128;2022-08-11T06:28:05;19.90;;;3.90;;
21089;SDS011;10703;51.020;6.128;2022-08-11T06:30:37;9.47;;;3.40;;
21089;SDS011;10703;51.020;6.128;2022-08-11T06:33:12;7.73;;;3.50;;
21089;SDS011;10703;51.020;6.128;2022-08-11T06:35:46;9.37;;;3.30;;
21089;SDS011;10703;51.020;6.128;2022-08-11T06:46:40;8.53;;;2.73;;
21089;SDS011;10703;51.020;6.128;2022-08-11T06:49:09;11.63;;;3.67;;
21089;SDS011;10703;51.020;6.128;2022-08-11T06:51:59;14.53;;;3.30;;
21089;SDS011;10703;51.020;6.128;2022-08-11T06:54:31;8.30;;;3.07;;
21089;SDS011;10703;51.020;6.128;2022-08-11T06:57:03;8.07;;;2.90;;
21089;SDS011;10703;51.020;6.128;2022-08-11T06:59:55;6.53;;;3.00;;
21089;SDS011;10703;51.020;6.128;2022-08-11T07:02:57;11.03;;;3.33;;
21089;SDS011;10703;51.020;6.128;2022-08-11T07:14:37;8.27;;;2.80;;
21089;SDS011;10703;51.020;6.128;2022-08-11T07:17:30;9.52;;;2.60;;
21089;SDS011;10703;51.020;6.128;2022-08-11T07:20:04;10.85;;;2.95;;
21089;SDS011;10703;51.020;6.128;2022-08-11T07:22:55;8.88;;;2.38;;
21089;SDS011;10703;51.020;6.128;2022-08-11T07:25:42;9.85;;;2.15;;
21089;SDS011;10703;51.020;6.128;2022-08-11T07:28:32;7.25;;;2.35;;
21089;SDS011;10703;51.020;6.128;2022-08-11T07:34:16;5.45;;;2.30;;
21089;SDS011;10703;51.020;6.128;2022-08-11T07:36:54;13.00;;;2.30;;
21089;SDS011;10703;51.020;6.128;2022-08-11T07:39:24;7.90;;;2.50;;
21089;SDS011;10703;51.020;6.128;2022-08-11T07:42:05;10.73;;;2.20;;
21089;SDS011;10703;51.020;6.128;2022-08-11T07:44:34;12.75;;;2.25;;
21089;SDS011;10703;51.020;6.128;2022-08-11T07:47:24;5.88;;;2.13;;
21089;SDS011;10703;51.020;6.128;2022-08-11T07:50:11;8.55;;;2.45;;
21089;SDS011;10703;51.020;6.128;2022-08-11T07:52:56;3.55;;;2.08;;
21089;SDS011;10703;51.020;6.128;2022-08-11T07:55:24;8.27;;;2.40;;
21089;SDS011;10703;51.020;6.128;2022-08-11T07:58:13;5.60;;;2.13;;
21089;SDS011;10703;51.020;6.128;2022-08-11T08:01:10;6.63;;;2.05;;
21089;SDS011;10703;51.020;6.128;2022-08-11T08:04:01;4.15;;;1.73;;
21089;SDS011;10703;51.020;6.128;2022-08-11T08:06:49;4.07;;;1.80;;
21089;SDS011;10703;51.020;6.128;2022-08-11T08:09:34;7.95;;;2.13;;
21089;SDS011;10703;51.020;6.128;2022-08-11T08:12:21;6.65;;;2.05;;
21089;SDS011;10703;51.020;6.128;2022-08-11T08:15:12;5.35;;;2.17;;
21089;SDS011;10703;51.020;6.128;2022-08-11T08:17:59;9.52;;;1.70;;
21089;SDS011;10703;51.020;6.128;2022-08-11T08:20:48;8.10;;;2.08;;
21089;SDS011;10703;51.020;6.128;2022-08-11T08:23:16;4.68;;;1.95;;
21089;SDS011;10703;51.020;6.128;2022-08-11T08:25:58;4.47;;;1.67;;
21089;SDS011;10703;51.020;6.128;2022-08-11T08:28:27;8.95;;;1.88;;
21089;SDS011;10703;51.020;6.128;2022-08-11T08:30:57;6.10;;;2.00;;
21089;SDS011;10703;51.020;6.128;2022-08-11T08:33:26;11.02;;;2.00;;
21089;SDS011;10703;51.020;6.128;2022-08-11T08:35:58;7.55;;;2.10;;
21089;SDS011;10703;51.020;6.128;2022-08-11T08:38:38;8.07;;;2.00;;
21089;SDS011;10703;51.020;6.128;2022-08-11T08:41:21;7.28;;;2.00;;
21089;SDS011;10703;51.020;6.128;2022-08-11T08:43:51;10.77;;;1.80;;
21089;SDS011;10703;51.020;6.128;2022-08-11T08:46:24;4.70;;;1.90;;
21089;SDS011;10703;51.020;6.128;2022-08-11T08:48:55;11.95;;;2.25;;
21089;SDS011;10703;51.020;6.128;2022-08-11T08:51:26;14.20;;;1.92;;
21089;SDS011;10703;51.020;6.128;2022-08-11T08:54:31;6.15;;;1.52;;
21089;SDS011;10703;51.020;6.128;2022-08-11T08:57:03;4.55;;;1.73;;
21089;SDS011;10703;51.020;6.128;2022-08-11T08:59:33;9.40;;;1.90;;
21089;SDS011;10703;51.020;6.128;2022-08-11T09:02:15;5.97;;;2.10;;
21089;SDS011;10703;51.020;6.128;2022-08-11T09:05:00;6.25;;;1.85;;
21089;SDS011;10703;51.020;6.128;2022-08-11T09:07:29;5.80;;;1.80;;
21089;SDS011;10703;51.020;6.128;2022-08-11T09:10:05;10.02;;;2.10;;
21089;SDS011;10703;51.020;6.128;2022-08-11T09:12:33;15.52;;;2.60;;
21089;SDS011;10703;51.020;6.128;2022-08-11T09:15:04;5.28;;;1.83;;
21089;SDS011;10703;51.020;6.128;2022-08-11T09:17:45;9.35;;;2.08;;
21089;SDS011;10703;51.020;6.128;2022-08-11T09:22:48;8.57;;;2.38;;
21089;SDS011;10703;51.020;6.128;2022-08-11T09:25:56;7.70;;;1.95;;
21089;SDS011;10703;51.020;6.128;2022-08-11T09:28:44;9.90;;;2.13;;
21089;SDS011;10703;51.020;6.128;2022-08-11T09:31:13;9.73;;;2.20;;
21089;SDS011;10703;51.020;6.128;2022-08-11T09:33:40;6.97;;;1.75;;
21089;SDS011;10703;51.020;6.128;2022-08-11T09:36:08;6.13;;;2.03;;
21089;SDS011;10703;51.020;6.128;2022-08-11T09:38:55;14.00;;;2.28;;
21089;SDS011;10703;51.020;6.128;2022-08-11T09:41:42;6.50;;;1.80;;
21089;SDS011;10703;51.020;6.128;2022-08-11T09:44:32;6.55;;;2.13;;
21089;SDS011;10703;51.020;6.128;2022-08-11T09:47:17;9.55;;;2.08;;
21089;SDS011;10703;51.020;6.128;2022-08-11T09:49:44;8.38;;;2.13;;
21089;SDS011;10703;51.020;6.128;2022-08-11T09:52:14;6.07;;;2.20;;
21089;SDS011;10703;51.020;6.128;2022-08-11T09:54:43;4.97;;;1.67;;
21089;SDS011;10703;51.020;6.128;2022-08-11T09:57:13;10.68;;;1.90;;
21089;SDS011;10703;51.020;6.128;2022-08-11T10:00:03;4.95;;;1.58;;
21089;SDS011;10703;51.020;6.128;2022-08-11T10:02:40;9.55;;;2.28;;
21089;SDS011;10703;51.020;6.128;2022-08-11T10:05:08;4.07;;;1.70;;
21089;SDS011;10703;51.020;6.128;2022-08-11T10:07:55;8.13;;;1.98;;
21089;SDS011;10703;51.020;6.128;2022-08-11T10:10:22;4.32;;;1.83;;
21089;SDS011;10703;51.020;6.128;2022-08-11T10:12:55;7.53;;;2.20;;
21089;SDS011;10703;51.020;6.128;2022-08-11T10:15:25;11.88;;;2.17;;
21089;SDS011;10703;51.020;6.128;2022-08-11T10:18:10;7.97;;;1.88;;
21089;SDS011;10703;51.020;6.128;2022-08-11T10:21:12;4.82;;;1.90;;
21089;SDS011;10703;51.020;6.128;2022-08-11T10:23:42;7.10;;;2.35;;
21089;SDS011;10703;51.020;6.128;2022-08-11T10:26:31;7.22;;;2.00;;
21089;SDS011;10703;51.020;6.128;2022-08-11T10:29:19;7.35;;;2.00;;
21089;SDS011;10703;51.020;6.128;2022-08-11T10:32:17;5.30;;;2.00;;
21089;SDS011;10703;51.020;6.128;2022-08-11T10:35:23;9.70;;;1.95;;
21089;SDS011;10703;51.020;6.128;2022-08-11T10:37:52;8.00;;;2.28;;
21089;SDS011;10703;51.020;6.128;2022-08-11T10:40:34;7.35;;;1.88;;
21089;SDS011;10703;51.020;6.128;2022-08-11T10:43:05;3.53;;;2.35;;
21089;SDS011;10703;51.020;6.128;2022-08-11T10:45:40;4.32;;;1.63;;
21089;SDS011;10703;51.020;6.128;2022-08-11T10:48:28;6.00;;;2.33;;
21089;SDS011;10703;51.020;6.128;2022-08-11T10:50:56;5.40;;;1.80;;
21089;SDS011;10703;51.020;6.128;2022-08-11T10:53:57;4.70;;;1.63;;
21089;SDS011;10703;51.020;6.128;2022-08-11T10:56:42;7.70;;;1.70;;
21089;SDS011;10703;51.020;6.128;2022-08-11T10:59:28;3.70;;;2.03;;
21089;SDS011;10703;51.020;6.128;2022-08-11T11:01:55;6.05;;;1.90;;
21089;SDS011;10703;51.020;6.128;2022-08-11T11:07:30;2.72;;;1.58;;
21089;SDS011;10703;51.020;6.128;2022-08-11T11:10:09;6.93;;;1.85;;
21089;SDS011;10703;51.020;6.128;2022-08-11T11:12:38;5.55;;;1.80;;
21089;SDS011;10703;51.020;6.128;2022-08-11T11:15:28;3.92;;;1.77;;
21089;SDS011;10703;51.020;6.128;2022-08-11T11:18:26;8.27;;;2.05;;
21089;SDS011;10703;51.020;6.128;2022-08-11T11:21:10;3.35;;;1.70;;
21089;SDS011;10703;51.020;6.128;2022-08-11T11:23:42;39.38;;;3.63;;
21089;SDS011;10703;51.020;6.128;2022-08-11T11:34:54;5.10;;;2.00;;
21089;SDS011;10703;51.020;6.128;2022-08-11T11:37:34;4.80;;;1.70;;
21089;SDS011;10703;51.020;6.128;2022-08-11T11:40:10;5.93;;;1.92;;
21089;SDS011;10703;51.020;6.128;2022-08-11T11:42:40;5.18;;;1.98;;
21089;SDS011;10703;51.020;6.128;2022-08-11T11:45:09;3.53;;;1.38;;
21089;SDS011;10703;51.020;6.128;2022-08-11T11:47:48;2.55;;;1.60;;
21089;SDS011;10703;51.020;6.128;2022-08-11T11:50:29;7.60;;;2.03;;
21089;SDS011;10703;51.020;6.128;2022-08-11T11:53:00;5.53;;;1.92;;
21089;SDS011;10703;51.020;6.128;2022-08-11T11:55:29;6.35;;;1.80;;
21089;SDS011;10703;51.020;6.128;2022-08-11T11:58:00;7.32;;;1.83;;
21089;SDS011;10703;51.020;6.128;2022-08-11T12:00:47;10.63;;;2.15;;
21089;SDS011;10703;51.020;6.128;2022-08-11T12:03:34;3.50;;;1.73;;
21089;SDS011;10703;51.020;6.128;2022-08-11T12:06:03;5.57;;;2.05;;
21089;SDS011;10703;51.020;6.128;2022-08-11T12:08:30;4.43;;;1.60;;
21089;SDS011;10703;51.020;6.128;2022-08-11T12:10:58;6.57;;;1.65;;
21089;SDS011;10703;51.020;6.128;2022-08-11T12:13:50;3.60;;;1.58;;
21089;SDS011;10703;51.020;6.128;2022-08-11T12:16:18;3.47;;;1.85;;
21089;SDS011;10703;51.020;6.128;2022-08-11T12:19:00;5.72;;;1.60;;
21089;SDS011;10703;51.020;6.128;2022-08-11T12:21:37;3.03;;;1.63;;
21089;SDS011;10703;51.020;6.128;2022-08-11T12:24:27;4.85;;;1.70;;
21089;SDS011;10703;51.020;6.128;2022-08-11T12:27:15;4.93;;;1.30;;
21089;SDS011;10703;51.020;6.128;2022-08-11T12:30:09;3.33;;;1.58;;
21089;SDS011;10703;51.020;6.128;2022-08-11T12:32:36;3.63;;;1.58;;
21089;SDS011;10703;51.020;6.128;2022-08-11T12:35:04;2.15;;;1.67;;
21089;SDS011;10703;51.020;6.128;2022-08-11T12:37:39;5.20;;;1.80;;
21089;SDS011;10703;51.020;6.128;2022-08-11T12:40:12;4.57;;;1.70;;
21089;SDS011;10703;51.020;6.128;2022-08-11T12:43:19;3.65;;;1.70;;
21089;SDS011;10703;51.020;6.128;2022-08-11T12:46:07;5.82;;;1.83;;
21089;SDS011;10703;51.020;6.128;2022-08-11T12:48:40;7.65;;;2.00;;
21089;SDS011;10703;51.020;6.128;2022-08-11T12:51:31;6.65;;;1.90;;
21089;SDS011;10703;51.020;6.128;2022-08-11T12:54:48;4.32;;;1.60;;
21089;SDS011;10703;51.020;6.128;2022-08-11T12:57:25;7.43;;;1.70;;
21089;SDS011;10703;51.020;6.128;2022-08-11T13:00:21;7.68;;;1.80;;
21089;SDS011;10703;51.020;6.128;2022-08-11T13:03:08;4.28;;;1.92;;
21089;SDS011;10703;51.020;6.128;2022-08-11T13:05:56;4.80;;;1.95;;
21089;SDS011;10703;51.020;6.128;2022-08-11T13:08:26;4.90;;;1.48;;
21089;SDS011;10703;51.020;6.128;2022-08-11T13:10:55;4.97;;;2.30;;
21089;SDS011;10703;51.020;6.128;2022-08-11T13:13:48;4.82;;;2.03;;
21089;SDS011;10703;51.020;6.128;2022-08-11T13:16:24;12.27;;;2.03;;
21089;SDS011;10703;51.020;6.128;2022-08-11T13:18:56;4.90;;;1.80;;
21089;SDS011;10703;51.020;6.128;2022-08-11T13:21:26;11.68;;;2.20;;
21089;SDS011;10703;51.020;6.128;2022-08-11T13:23:54;4.40;;;1.90;;
21089;SDS011;10703;51.020;6.128;2022-08-11T13:26:31;10.20;;;1.70;;
21089;SDS011;10703;51.020;6.128;2022-08-11T13:29:14;4.95;;;1.42;;
21089;SDS011;10703;51.020;6.128;2022-08-11T13:31:43;5.00;;;1.70;;
21089;SDS011;10703;51.020;6.128;2022-08-11T13:34:11;3.95;;;1.98;;
21089;SDS011;10703;51.020;6.128;2022-08-11T13:36:39;4.43;;;1.92;;
21089;SDS011;10703;51.020;6.128;2022-08-11T13:39:06;8.25;;;1.98;;
21089;SDS011;10703;51.020;6.128;2022-08-11T13:41:34;4.05;;;1.90;;
21089;SDS011;10703;51.020;6.128;2022-08-11T13:44:09;7.00;;;2.20;;
21089;SDS011;10703;51.020;6.128;2022-08-11T13:46:42;10.63;;;1.85;;
21089;SDS011;10703;51.020;6.128;2022-08-11T13:49:10;4.75;;;1.70;;
21089;SDS011;10703;51.020;6.128;2022-08-11T13:51:40;8.82;;;1.83;;
21089;SDS011;10703;51.020;6.128;2022-08-11T13:54:09;5.25;;;1.70;;
21089;SDS011;10703;51.020;6.128;2022-08-11T13:56:41;7.13;;;2.05;;
21089;SDS011;10703;51.020;6.128;2022-08-11T13:59:10;3.58;;;1.20;;
21089;SDS011;10703;51.020;6.128;2022-08-11T14:01:52;7.65;;;2.20;;
21089;SDS011;10703;51.020;6.128;2022-08-11T14:04:42;5.68;;;2.00;;
21089;SDS011;10703;51.020;6.128;2022-08-11T14:07:20;7.38;;;1.90;;
21089;SDS011;10703;51.020;6.128;2022-08-11T14:09:57;8.52;;;2.00;;
21089;SDS011;10703;51.020;6.128;2022-08-11T14:12:25;6.45;;;2.15;;
21089;SDS011;10703;51.020;6.128;2022-08-11T14:15:17;12.68;;;2.22;;
21089;SDS011;10703;51.020;6.128;2022-08-11T14:17:47;13.38;;;2.47;;
21089;SDS011;10703;51.020;6.128;2022-08-11T14:20:21;12.70;;;1.95;;
21089;SDS011;10703;51.020;6.128;2022-08-11T14:23:05;5.03;;;1.70;;
21089;SDS011;10703;51.020;6.128;2022-08-11T14:25:32;8.23;;;1.63;;
21089;SDS011;10703;51.020;6.128;2022-08-11T14:28:19;8.32;;;1.60;;
21089;SDS011;10703;51.020;6.128;2022-08-11T14:30:59;6.07;;;1.90;;
21089;SDS011;10703;51.020;6.128;2022-08-11T14:33:29;6.60;;;1.60;;
21089;SDS011;10703;51.020;6.128;2022-08-11T14:36:19;8.55;;;2.08;;
21089;SDS011;10703;51.020;6.128;2022-08-11T14:38:48;5.25;;;1.60;;
21089;SDS011;10703;51.020;6.128;2022-08-11T14:41:18;3.80;;;1.52;;
21089;SDS011;10703;51.020;6.128;2022-08-11T14:44:24;8.45;;;1.90;;
21089;SDS011;10703;51.020;6.128;2022-08-11T14:47:11;3.58;;;1.58;;
21089;SDS011;10703;51.020;6.128;2022-08-11T14:49:50;3.22;;;1.42;;
21089;SDS011;10703;51.020;6.128;2022-08-11T14:52:36;6.43;;;1.77;;
21089;SDS011;10703;51.020;6.128;2022-08-11T14:55:04;4.15;;;1.67;;
21089;SDS011;10703;51.020;6.128;2022-08-11T14:57:49;7.97;;;1.67;;
21089;SDS011;10703;51.020;6.128;2022-08-11T15:00:21;3.08;;;1.80;;
21089;SDS011;10703;51.020;6.128;2022-08-11T15:02:49;5.38;;;1.88;;
21089;SDS011;10703;51.020;6.128;2022-08-11T15:05:36;8.50;;;1.70;;
21089;SDS011;10703;51.020;6.128;2022-08-11T15:08:23;7.80;;;1.90;;
21089;SDS011;10703;51.020;6.128;2022-08-11T15:11:14;8.73;;;1.52;;
21089;SDS011;10703;51.020;6.128;2022-08-11T15:14:02;4.55;;;1.80;;
21089;SDS011;10703;51.020;6.128;2022-08-11T15:16:31;4.43;;;1.52;;
21089;SDS011;10703;51.020;6.128;2022-08-11T15:19:17;2.15;;;1.40;;
21089;SDS011;10703;51.020;6.128;2022-08-11T15:21:47;4.78;;;1.90;;
21089;SDS011;10703;51.020;6.128;2022-08-11T15:24:33;4.60;;;1.65;;
21089;SDS011;10703;51.020;6.128;2022-08-11T15:27:07;8.27;;;1.70;;
21089;SDS011;10703;51.020;6.128;2022-08-11T15:29:56;5.70;;;1.63;;
21089;SDS011;10703;51.020;6.128;2022-08-11T15:33:00;5.28;;;1.70;;
21089;SDS011;10703;51.020;6.128;2022-08-11T15:35:50;3.78;;;1.60;;
21089;SDS011;10703;51.020;6.128;2022-08-11T15:38:39;7.10;;;1.48;;
21089;SDS011;10703;51.020;6.128;2022-08-11T15:41:20;4.90;;;1.73;;
21089;SDS011;10703;51.020;6.128;2022-08-11T15:44:23;7.43;;;1.73;;
21089;SDS011;10703;51.020;6.128;2022-08-11T15:47:28;7.43;;;1.80;;
21089;SDS011;10703;51.020;6.128;2022-08-11T15:50:09;5.45;;;1.77;;
21089;SDS011;10703;51.020;6.128;2022-08-11T15:52:45;4.95;;;1.90;;
21089;SDS011;10703;51.020;6.128;2022-08-11T15:55:18;5.00;;;1.83;;
21089;SDS011;10703;51.020;6.128;2022-08-11T15:57:49;8.98;;;2.05;;
21089;SDS011;10703;51.020;6.128;2022-08-11T16:00:35;10.57;;;2.13;;
21089;SDS011;10703;51.020;6.128;2022-08-11T16:03:29;6.10;;;2.10;;
21089;SDS011;10703;51.020;6.128;2022-08-11T16:06:34;5.07;;;2.00;;
21089;SDS011;10703;51.020;6.128;2022-08-11T16:09:13;7.10;;;1.60;;
21089;SDS011;10703;51.020;6.128;2022-08-11T16:11:44;2.85;;;1.70;;
21089;SDS011;10703;51.020;6.128;2022-08-11T16:14:11;9.45;;;1.90;;
21089;SDS011;10703;51.020;6.128;2022-08-11T16:16:59;5.75;;;2.05;;
21089;SDS011;10703;51.020;6.128;2022-08-11T16:19:28;9.80;;;2.15;;
21089;SDS011;10703;51.020;6.128;2022-08-11T16:22:02;10.63;;;2.08;;
21089;SDS011;10703;51.020;6.128;2022-08-11T16:24:32;5.50;;;1.90;;
21089;SDS011;10703;51.020;6.128;2022-08-11T16:27:22;5.05;;;1.58;;
21089;SDS011;10703;51.020;6.128;2022-08-11T16:29:50;6.07;;;1.48;;
21089;SDS011;10703;51.020;6.128;2022-08-11T16:32:19;9.20;;;2.00;;
21089;SDS011;10703;51.020;6.128;2022-08-11T16:34:50;8.52;;;1.83;;
21089;SDS011;10703;51.020;6.128;2022-08-11T16:37:39;7.45;;;2.10;;
21089;SDS011;10703;51.020;6.128;2022-08-11T16:40:27;7.97;;;2.22;;
21089;SDS011;10703;51.020;6.128;2022-08-11T16:42:55;5.75;;;1.95;;
21089;SDS011;10703;51.020;6.128;2022-08-11T16:45:42;7.00;;;1.90;;
21089;SDS011;10703;51.020;6.128;2022-08-11T16:48:33;6.70;;;2.25;;
21089;SDS011;10703;51.020;6.128;2022-08-11T16:51:05;5.43;;;2.10;;
21089;SDS011;10703;51.020;6.128;2022-08-11T16:53:33;6.68;;;2.50;;
21089;SDS011;10703;51.020;6.128;2022-08-11T16:56:22;9.70;;;2.47;;
21089;SDS011;10703;51.020;6.128;2022-08-11T16:58:54;4.05;;;1.88;;
21089;SDS011;10703;51.020;6.128;2022-08-11T17:01:52;9.80;;;1.98;;
21089;SDS011;10703;51.020;6.128;2022-08-11T17:04:30;6.70;;;1.70;;
21089;SDS011;10703;51.020;6.128;2022-08-11T17:07:23;4.85;;;1.67;;
21089;SDS011;10703;51.020;6.128;2022-08-11T17:10:18;2.70;;;1.73;;
21089;SDS011;10703;51.020;6.128;2022-08-11T17:13:20;3.97;;;2.00;;
21089;SDS011;10703;51.020;6.128;2022-08-11T17:15:52;7.18;;;2.10;;
21089;SDS011;10703;51.020;6.128;2022-08-11T17:18:37;8.90;;;2.20;;
21089;SDS011;10703;51.020;6.128;2022-08-11T17:21:26;5.72;;;2.38;;
21089;SDS011;10703;51.020;6.128;2022-08-11T17:23:59;5.80;;;1.90;;
21089;SDS011;10703;51.020;6.128;2022-08-11T17:26:36;5.07;;;2.30;;
21089;SDS011;10703;51.020;6.128;2022-08-11T17:29:32;10.18;;;2.40;;
21089;SDS011;10703;51.020;6.128;2022-08-11T17:32:25;4.63;;;2.17;;
21089;SDS011;10703;51.020;6.128;2022-08-11T17:35:26;10.60;;;2.35;;
21089;SDS011;10703;51.020;6.128;2022-08-11T17:37:59;9.50;;;2.67;;
21089;SDS011;10703;51.020;6.128;2022-08-11T17:40:31;5.75;;;2.10;;
21089;SDS011;10703;51.020;6.128;2022-08-11T17:43:02;4.75;;;2.10;;
21089;SDS011;10703;51.020;6.128;2022-08-11T17:45:48;9.30;;;2.40;;
21089;SDS011;10703;51.020;6.128;2022-08-11T17:48:35;4.90;;;2.42;;
21089;SDS011;10703;51.020;6.128;2022-08-11T17:51:14;5.95;;;2.20;;
21089;SDS011;10703;51.020;6.128;2022-08-11T17:54:04;5.45;;;2.00;;
21089;SDS011;10703;51.020;6.128;2022-08-11T17:56:52;14.85;;;2.00;;
21089;SDS011;10703;51.020;6.128;2022-08-11T17:59:46;5.50;;;2.33;;
21089;SDS011;10703;51.020;6.128;2022-08-11T18:02:18;8.85;;;2.30;;
21089;SDS011;10703;51.020;6.128;2022-08-11T18:05:18;7.35;;;2.75;;
21089;SDS011;10703;51.020;6.128;2022-08-11T18:07:49;9.50;;;2.50;;
21089;SDS011;10703;51.020;6.128;2022-08-11T18:10:36;7.25;;;2.50;;
21089;SDS011;10703;51.020;6.128;2022-08-11T18:13:23;6.13;;;2.50;;
21089;SDS011;10703;51.020;6.128;2022-08-11T18:16:12;8.35;;;2.75;;
21089;SDS011;10703;51.020;6.128;2022-08-11T18:18:58;4.70;;;2.58;;
21089;SDS011;10703;51.020;6.128;2022-08-11T18:21:44;6.65;;;2.20;;
21089;SDS011;10703;51.020;6.128;2022-08-11T18:24:49;9.50;;;2.17;;
21089;SDS011;10703;51.020;6.128;2022-08-11T18:27:39;12.18;;;2.72;;
21089;SDS011;10703;51.020;6.128;2022-08-11T18:30:29;11.00;;;2.53;;
21089;SDS011;10703;51.020;6.128;2022-08-11T18:33:32;8.05;;;2.45;;
21089;SDS011;10703;51.020;6.128;2022-08-11T18:36:35;5.53;;;2.30;;
21089;SDS011;10703;51.020;6.128;2022-08-11T18:39:49;13.75;;;2.60;;
21089;SDS011;10703;51.020;6.128;2022-08-11T18:42:39;9.48;;;2.38;;
21089;SDS011;10703;51.020;6.128;2022-08-11T18:45:27;6.85;;;2.05;;
21089;SDS011;10703;51.020;6.128;2022-08-11T18:48:21;5.07;;;1.90;;
21089;SDS011;10703;51.020;6.128;2022-08-11T18:51:13;6.93;;;2.20;;
21089;SDS011;10703;51.020;6.128;2022-08-11T18:54:05;5.93;;;2.22;;
21089;SDS011;10703;51.020;6.128;2022-08-11T18:56:54;5.65;;;2.05;;
21089;SDS011;10703;51.020;6.128;2022-08-11T18:59:41;6.93;;;2.20;;
21089;SDS011;10703;51.020;6.128;2022-08-11T19:02:28;5.93;;;2.53;;
21089;SDS011;10703;51.020;6.128;2022-08-11T19:05:17;8.18;;;1.80;;
21089;SDS011;10703;51.020;6.128;2022-08-11T19:08:24;3.60;;;2.08;;
21089;SDS011;10703;51.020;6.128;2022-08-11T19:11:14;9.02;;;1.92;;
21089;SDS011;10703;51.020;6.128;2022-08-11T19:14:08;5.53;;;2.20;;
21089;SDS011;10703;51.020;6.128;2022-08-11T19:16:56;5.82;;;2.28;;
21089;SDS011;10703;51.020;6.128;2022-08-11T19:20:04;8.10;;;2.25;;
21089;SDS011;10703;51.020;6.128;2022-08-11T19:22:52;4.95;;;2.03;;